| time (UTC) | temp F | wind direction | speed MPH | gust MPH | rain 1hr in | rain 24hr in | rain mn in | humidity % | barometer mb |
| 20260507193020 | 66 | 265 | 16.0 | 23.0 | 0.00 | 0.00 | 0.00 | 27 | 1013.2 |
| 20260507191519 | 64 | 239 | 17.0 | 23.0 | 0.00 | 0.00 | 0.00 | 27 | 1013.4 |
| 20260507190017 | 64 | 237 | 19.0 | 26.0 | 0.00 | 0.00 | 0.00 | 29 | 1013.3 |
| 20260507184516 | 64 | 229 | 20.0 | 28.0 | 0.00 | 0.00 | 0.00 | 30 | 1013.5 |
| 20260507183014 | 63 | 240 | 22.0 | 30.0 | 0.00 | 0.00 | 0.00 | 27 | 1013.7 |
| 20260507181510 | 62 | 236 | 20.0 | 29.0 | 0.00 | 0.00 | 0.00 | 36 | 1013.6 |
| 20260507180013 | 61 | 218 | 19.0 | 26.0 | 0.00 | 0.00 | 0.00 | 34 | 1013.9 |
| 20260507174507 | 60 | 250 | 22.0 | 29.0 | 0.00 | 0.00 | 0.00 | 37 | 1013.7 |
| 20260507173005 | 60 | 237 | 21.0 | 30.0 | 0.00 | 0.00 | 0.00 | 42 | 1014.0 |
| 20260507171502 | 59 | 252 | 22.0 | 29.0 | 0.00 | 0.00 | 0.00 | 46 | 1014.0 |
| 20260507170100 | 58 | 218 | 22.0 | 30.0 | 0.00 | 0.00 | 0.00 | 51 | 1013.9 |
| 20260507164600 | 58 | 244 | 20.0 | 28.0 | 0.00 | 0.00 | 0.00 | 58 | 1013.7 |
| 20260507163057 | 57 | 242 | 25.0 | 31.0 | 0.00 | 0.00 | 0.00 | 58 | 1014.0 |
| 20260507161559 | 56 | 231 | 23.0 | 33.0 | 0.00 | 0.00 | 0.00 | 61 | 1013.9 |
| 20260507160057 | 56 | 240 | 23.0 | 32.0 | 0.00 | 0.00 | 0.00 | 60 | 1013.7 |
| 20260507154553 | 55 | 240 | 26.0 | 33.0 | 0.00 | 0.00 | 0.00 | 62 | 1013.8 |
| 20260507153059 | 55 | 228 | 23.0 | 32.0 | 0.00 | 0.00 | 0.00 | 66 | 1014.0 |
| 20260507151552 | 54 | 237 | 23.0 | 31.0 | 0.00 | 0.00 | 0.00 | 67 | 1014.2 |
| 20260507150051 | 54 | 232 | 23.0 | 30.0 | 0.00 | 0.00 | 0.00 | 69 | 1014.1 |
| 20260507144550 | 53 | 243 | 21.0 | 31.0 | 0.00 | 0.00 | 0.00 | 71 | 1014.1 |
| 20260507143048 | 52 | 244 | 18.0 | 25.0 | 0.00 | 0.00 | 0.00 | 76 | 1013.9 |
| 20260507141547 | 51 | 236 | 18.0 | 24.0 | 0.00 | 0.00 | 0.00 | 79 | 1013.9 |
| 20260507140101 | 50 | 223 | 16.0 | 22.0 | 0.00 | 0.00 | 0.00 | 81 | 1013.6 |
| 20260507134548 | 49 | 207 | 18.0 | 22.0 | 0.00 | 0.00 | 0.00 | 83 | 1013.4 |
| 20260507133047 | 49 | 212 | 15.0 | 21.0 | 0.00 | 0.00 | 0.00 | 83 | 1013.4 |
| 20260507131548 | 49 | 213 | 17.0 | 21.0 | 0.00 | 0.00 | 0.00 | 82 | 1013.6 |
| 20260507130045 | 49 | 219 | 17.0 | 23.0 | 0.00 | 0.00 | 0.00 | 83 | 1013.5 |
| 20260507124544 | 49 | 217 | 16.0 | 23.0 | 0.00 | 0.00 | 0.00 | 83 | 1013.4 |
| 20260507123041 | 50 | 242 | 20.0 | 30.0 | 0.00 | 0.00 | 0.00 | 81 | 1013.1 |
| 20260507121538 | 50 | 229 | 21.0 | 27.0 | 0.00 | 0.00 | 0.00 | 80 | 1013.0 |
| 20260507120037 | 51 | 238 | 22.0 | 32.0 | 0.00 | 0.00 | 0.00 | 79 | 1013.0 |
| 20260507114536 | 51 | 249 | 20.0 | 29.0 | 0.00 | 0.00 | 0.00 | 78 | 1013.1 |
| 20260507113039 | 52 | 251 | 21.0 | 29.0 | 0.00 | 0.00 | 0.00 | 78 | 1013.1 |
| 20260507111530 | 52 | 250 | 18.0 | 23.0 | 0.00 | 0.00 | 0.00 | 78 | 1013.7 |
| 20260507110028 | 52 | 248 | 18.0 | 24.0 | 0.00 | 0.00 | 0.00 | 79 | 1013.9 |
| 20260507104528 | 51 | 244 | 12.0 | 16.0 | 0.00 | 0.00 | 0.00 | 81 | 1014.1 |
| 20260507103025 | 52 | 236 | 11.0 | 15.0 | 0.00 | 0.00 | 0.00 | 80 | 1013.9 |
| 20260507101535 | 53 | 234 | 14.0 | 23.0 | 0.00 | 0.00 | 0.00 | 78 | 1013.7 |
| 20260507100029 | 54 | 236 | 18.0 | 27.0 | 0.00 | 0.00 | 0.00 | 77 | 1013.6 |
| 20260507094518 | 52 | 238 | 12.0 | 16.0 | 0.00 | 0.00 | 0.00 | 80 | 1013.5 |
| 20260507093020 | 53 | 221 | 13.0 | 19.0 | 0.00 | 0.00 | 0.00 | 80 | 1013.6 |
| 20260507091533 | 54 | 222 | 14.0 | 19.0 | 0.00 | 0.00 | 0.00 | 78 | 1013.6 |
| 20260507090011 | 54 | 211 | 14.0 | 22.0 | 0.00 | 0.00 | 0.00 | 77 | 1013.7 |
| 20260507084509 | 55 | 248 | 11.0 | 19.0 | 0.00 | 0.00 | 0.00 | 76 | 1013.7 |
| 20260507083009 | 55 | 211 | 12.0 | 25.0 | 0.00 | 0.00 | 0.00 | 75 | 1013.9 |
| 20260507081507 | 56 | 251 | 17.0 | 26.0 | 0.00 | 0.00 | 0.00 | 74 | 1013.8 |
| 20260507080006 | 56 | 231 | 19.0 | 26.0 | 0.00 | 0.00 | 0.00 | 73 | 1013.9 |
| 20260507074508 | 56 | 219 | 19.0 | 25.0 | 0.00 | 0.00 | 0.00 | 74 | 1014.0 |
| 20260507073002 | 56 | 217 | 15.0 | 23.0 | 0.00 | 0.00 | 0.00 | 75 | 1013.8 |
| 20260507071601 | 56 | 227 | 15.0 | 24.0 | 0.00 | 0.00 | 0.00 | 74 | 1013.7 |
| 20260507070137 | 57 | 242 | 20.0 | 27.0 | 0.00 | 0.00 | 0.00 | 73 | 1013.3 |
| 20260507064555 | 57 | 236 | 19.0 | 30.0 | 0.00 | 0.00 | 0.00 | 73 | 1013.0 |
| 20260507063100 | 57 | 249 | 20.0 | 32.0 | 0.00 | 0.00 | 0.00 | 73 | 1013.0 |
| 20260507061554 | 58 | 242 | 24.0 | 35.0 | 0.00 | 0.00 | 0.00 | 72 | 1013.0 |
| 20260507060054 | 58 | 232 | 24.0 | 33.0 | 0.00 | 0.00 | 0.00 | 72 | 1012.7 |
| 20260507054556 | 58 | 246 | 26.0 | 38.0 | 0.00 | 0.00 | 0.00 | 72 | 1013.0 |
| 20260507053055 | 58 | 243 | 26.0 | 34.0 | 0.00 | 0.00 | 0.00 | 71 | 1013.2 |
| 20260507051552 | 59 | 253 | 24.0 | 34.0 | 0.00 | 0.00 | 0.00 | 69 | 1013.1 |
| 20260507050052 | 59 | 251 | 24.0 | 33.0 | 0.00 | 0.00 | 0.00 | 68 | 1013.2 |
| 20260507044551 | 59 | 247 | 22.0 | 33.0 | 0.00 | 0.00 | 0.00 | 66 | 1013.4 |
| 20260507043051 | 60 | 253 | 20.0 | 31.0 | 0.00 | 0.00 | 0.00 | 63 | 1013.3 |
| 20260507041548 | 60 | 239 | 21.0 | 30.0 | 0.00 | 0.00 | 0.00 | 61 | 1013.1 |
| 20260507040050 | 60 | 248 | 23.0 | 30.0 | 0.00 | 0.00 | 0.00 | 60 | 1012.9 |
| 20260507034549 | 61 | 243 | 25.0 | 33.0 | 0.00 | 0.00 | 0.00 | 59 | 1012.7 |
| 20260507033047 | 61 | 258 | 23.0 | 34.0 | 0.00 | 0.00 | 0.00 | 58 | 1012.5 |
| 20260507031546 | 62 | 253 | 27.0 | 37.0 | 0.00 | 0.00 | 0.00 | 57 | 1012.4 |
| 20260507030048 | 62 | 246 | 28.0 | 35.0 | 0.00 | 0.00 | 0.00 | 57 | 1012.4 |
| 20260507024546 | 62 | 246 | 28.0 | 36.0 | 0.00 | 0.00 | 0.00 | 55 | 1012.2 |
| 20260507023045 | 62 | 267 | 26.0 | 37.0 | 0.00 | 0.00 | 0.00 | 56 | 1012.1 |
| 20260507021557 | 63 | 267 | 24.0 | 37.0 | 0.00 | 0.00 | 0.00 | 54 | 1012.1 |
| 20260507020051 | 64 | 256 | 27.0 | 39.0 | 0.00 | 0.00 | 0.00 | 53 | 1012.0 |
| 20260507014558 | 64 | 263 | 26.0 | 35.0 | 0.00 | 0.00 | 0.00 | 53 | 1012.0 |
| 20260507013044 | 65 | 246 | 24.0 | 35.0 | 0.00 | 0.00 | 0.00 | 53 | 1012.1 |
| 20260507011543 | 66 | 266 | 27.0 | 37.0 | 0.00 | 0.00 | 0.00 | 51 | 1011.8 |
| 20260507010047 | 66 | 251 | 26.0 | 38.0 | 0.00 | 0.00 | 0.00 | 50 | 1011.7 |
| 20260507004543 | 66 | 225 | 23.0 | 33.0 | 0.00 | 0.00 | 0.00 | 50 | 1011.7 |
| 20260507003041 | 66 | 238 | 23.0 | 37.0 | 0.00 | 0.00 | 0.00 | 52 | 1011.8 |
| 20260507001540 | 67 | 247 | 28.0 | 37.0 | 0.00 | 0.00 | 0.00 | 50 | 1011.7 |
| 20260507000043 | 68 | 236 | 28.0 | 39.0 | 0.00 | 0.00 | 0.00 | 48 | 1011.4 |
| 20260506234540 | 70 | 251 | 23.0 | 32.0 | 0.00 | 0.00 | 0.00 | 45 | 1011.3 |
| 20260506233040 | 71 | 217 | 21.0 | 32.0 | 0.00 | 0.00 | 0.00 | 44 | 1011.5 |
| 20260506231639 | 71 | 239 | 24.0 | 34.0 | 0.00 | 0.00 | 0.00 | 44 | 1011.5 |
| 20260506230038 | 71 | 231 | 25.0 | 32.0 | 0.00 | 0.00 | 0.00 | 44 | 1011.6 |
| 20260506224538 | 73 | 241 | 23.0 | 34.0 | 0.00 | 0.00 | 0.00 | 39 | 1011.9 |
| 20260506223038 | 72 | 243 | 26.0 | 34.0 | 0.00 | 0.00 | 0.00 | 39 | 1011.8 |
| 20260506221537 | 72 | 246 | 29.0 | 37.0 | 0.00 | 0.00 | 0.00 | 38 | 1011.8 |
| 20260506220038 | 73 | 232 | 25.0 | 33.0 | 0.00 | 0.00 | 0.00 | 39 | 1012.0 |
| 20260506214534 | 72 | 221 | 26.0 | 34.0 | 0.00 | 0.00 | 0.00 | 42 | 1011.9 |
| 20260506213032 | 72 | 245 | 24.0 | 35.0 | 0.00 | 0.00 | 0.00 | 44 | 1011.9 |
| 20260506211532 | 72 | 248 | 24.0 | 38.0 | 0.00 | 0.00 | 0.00 | 45 | 1011.8 |
| 20260506210032 | 71 | 239 | 29.0 | 38.0 | 0.00 | 0.00 | 0.00 | 46 | 1011.9 |
| 20260506204529 | 71 | 238 | 23.0 | 33.0 | 0.00 | 0.00 | 0.00 | 47 | 1012.0 |
| 20260506203030 | 70 | 248 | 25.0 | 36.0 | 0.00 | 0.00 | 0.00 | 49 | 1011.9 |
| 20260506201540 | 69 | 253 | 28.0 | 38.0 | 0.00 | 0.00 | 0.00 | 50 | 1011.4 |
| 20260506200028 | 69 | 234 | 29.0 | 38.0 | 0.00 | 0.00 | 0.00 | 52 | 1011.7 |
| 20260506194527 | 69 | 246 | 21.0 | 39.0 | 0.00 | 0.00 | 0.00 | 52 | 1011.9 |